createdAt,value
2022-08-07T00:01:44.288Z,99.90
2022-08-07T00:04:09.228Z,99.90
2022-08-07T00:06:40.980Z,99.90
2022-08-07T00:09:22.335Z,99.90
2022-08-07T00:11:58.745Z,99.90
2022-08-07T00:14:31.378Z,99.90
2022-08-07T00:17:01.608Z,99.90
2022-08-07T00:20:00.689Z,99.90
2022-08-07T00:22:24.371Z,99.90
2022-08-07T00:25:05.314Z,99.90
2022-08-07T00:27:53.434Z,99.90
2022-08-07T00:30:28.139Z,99.90
2022-08-07T00:32:58.324Z,99.90
2022-08-07T00:35:30.075Z,99.90
2022-08-07T00:37:59.036Z,99.90
2022-08-07T00:40:39.940Z,99.90
2022-08-07T00:43:58.651Z,99.90
2022-08-07T00:46:02.168Z,99.90
2022-08-07T00:48:32.357Z,99.90
2022-08-07T00:51:02.630Z,99.90
2022-08-07T00:53:39.228Z,99.90
2022-08-07T00:56:19.077Z,99.90
2022-08-07T00:58:49.709Z,99.90
2022-08-07T01:01:21.279Z,99.90
2022-08-07T01:03:55.571Z,99.90
2022-08-07T01:06:27.274Z,99.90
2022-08-07T01:08:58.427Z,99.90
2022-08-07T01:12:09.100Z,99.90
2022-08-07T01:14:16.861Z,99.90
2022-08-07T01:16:47.990Z,99.90
2022-08-07T01:19:20.540Z,99.90
2022-08-07T01:21:56.262Z,99.90
2022-08-07T01:24:32.062Z,99.90
2022-08-07T01:27:02.394Z,99.90
2022-08-07T01:29:34.249Z,99.90
2022-08-07T01:32:11.891Z,99.90
2022-08-07T01:34:47.192Z,99.90
2022-08-07T01:37:19.008Z,99.90
2022-08-07T01:39:50.316Z,99.90
2022-08-07T01:42:38.517Z,99.90
2022-08-07T01:45:22.769Z,99.90
2022-08-07T01:48:18.585Z,99.90
2022-08-07T01:50:57.163Z,99.90
2022-08-07T01:54:08.418Z,99.90
2022-08-07T01:56:28.874Z,99.90
2022-08-07T01:59:04.548Z,99.90
2022-08-07T02:01:59.931Z,99.90
2022-08-07T02:04:30.374Z,99.90
2022-08-07T02:07:04.187Z,99.90
2022-08-07T02:09:52.852Z,99.90
2022-08-07T02:12:29.223Z,99.90
2022-08-07T02:15:06.984Z,99.90
2022-08-07T02:17:49.328Z,99.90
2022-08-07T02:20:23.951Z,99.90
2022-08-07T02:22:59.671Z,99.90
2022-08-07T02:26:33.149Z,99.90
2022-08-07T02:28:24.747Z,99.90
2022-08-07T02:30:57.332Z,99.90
2022-08-07T02:33:33.054Z,99.90
2022-08-07T02:36:26.904Z,99.90
2022-08-07T02:39:00.625Z,99.90
2022-08-07T02:41:33.601Z,99.90
2022-08-07T02:44:06.824Z,99.90
2022-08-07T02:46:38.433Z,99.90
2022-08-07T02:49:55.695Z,99.90
2022-08-07T02:52:13.016Z,99.90
2022-08-07T02:54:44.884Z,99.90
2022-08-07T02:57:21.627Z,99.90
2022-08-07T02:59:54.962Z,99.90
2022-08-07T03:02:30.523Z,99.90
2022-08-07T03:05:06.591Z,99.90
2022-08-07T03:08:05.053Z,99.90
2022-08-07T03:10:26.685Z,99.90
2022-08-07T03:12:57.714Z,99.90
2022-08-07T03:15:30.375Z,99.90
2022-08-07T03:18:20.190Z,99.90
2022-08-07T03:20:53.464Z,99.90
2022-08-07T03:23:33.694Z,99.90
2022-08-07T03:26:15.644Z,99.90
2022-08-07T03:28:52.299Z,99.90
2022-08-07T03:31:24.720Z,99.90
2022-08-07T03:34:00.359Z,99.90
2022-08-07T03:36:31.853Z,99.90
2022-08-07T03:39:06.164Z,99.90
2022-08-07T03:41:42.273Z,99.90
2022-08-07T03:44:21.675Z,99.90
2022-08-07T03:47:13.733Z,99.90
2022-08-07T03:49:52.491Z,99.90
2022-08-07T03:52:27.247Z,99.90
2022-08-07T03:55:07.004Z,99.90
2022-08-07T03:58:34.484Z,99.90
2022-08-07T04:00:36.828Z,99.90
2022-08-07T04:03:06.671Z,99.90
2022-08-07T04:05:42.561Z,99.90
2022-08-07T04:08:21.671Z,99.90
2022-08-07T04:10:54.354Z,99.90
2022-08-07T04:14:11.026Z,99.90
2022-08-07T04:16:34.293Z,99.90
2022-08-07T04:19:14.686Z,99.90
2022-08-07T04:21:58.954Z,99.90
2022-08-07T04:24:34.074Z,99.90
2022-08-07T04:27:20.449Z,99.90
2022-08-07T04:30:02.028Z,99.90
2022-08-07T04:33:01.386Z,99.90
2022-08-07T04:35:36.429Z,99.90
2022-08-07T04:38:11.367Z,99.90
2022-08-07T04:40:52.555Z,99.90
2022-08-07T04:44:12.819Z,99.90
2022-08-07T04:47:04.008Z,99.90
2022-08-07T04:49:57.404Z,99.90
2022-08-07T04:52:35.691Z,99.90
2022-08-07T04:55:15.309Z,99.90
2022-08-07T04:58:29.342Z,99.90
2022-08-07T05:01:06.733Z,99.90
2022-08-07T05:04:06.760Z,99.90
2022-08-07T05:06:51.800Z,99.90
2022-08-07T05:09:46.205Z,99.90
2022-08-07T05:12:27.414Z,99.90
2022-08-07T05:15:16.159Z,99.90
2022-08-07T05:17:58.242Z,99.90
2022-08-07T05:20:34.728Z,99.90
2022-08-07T05:23:15.584Z,99.90
2022-08-07T05:26:11.186Z,99.90
2022-08-07T05:28:40.479Z,99.90
2022-08-07T05:31:16.617Z,99.90
2022-08-07T05:34:01.084Z,99.90
2022-08-07T05:36:35.942Z,99.90
2022-08-07T05:40:17.843Z,99.90
2022-08-07T05:42:07.566Z,99.90
2022-08-07T05:44:52.774Z,99.90
2022-08-07T05:47:38.434Z,99.90
2022-08-07T05:50:22.882Z,99.90
2022-08-07T05:52:53.873Z,99.90
2022-08-07T05:55:25.651Z,99.90
2022-08-07T05:58:16.891Z,99.90
2022-08-07T06:00:50.985Z,99.90
2022-08-07T06:03:21.367Z,99.90
2022-08-07T06:05:56.417Z,99.90
2022-08-07T06:08:30.856Z,99.90
2022-08-07T06:11:03.736Z,99.90
2022-08-07T06:14:12.148Z,99.90
2022-08-07T06:16:24.378Z,99.90
2022-08-07T06:19:00.012Z,99.90
2022-08-07T06:22:14.628Z,99.90
2022-08-07T06:24:45.385Z,99.90
2022-08-07T06:27:08.541Z,99.90
2022-08-07T06:29:39.169Z,99.90
2022-08-07T06:32:08.843Z,99.90
2022-08-07T06:34:45.319Z,99.90
2022-08-07T06:37:19.077Z,99.90
2022-08-07T06:40:17.715Z,99.90
2022-08-07T06:42:42.689Z,99.90
2022-08-07T06:45:21.676Z,99.90
2022-08-07T06:47:59.486Z,99.90
2022-08-07T06:50:37.745Z,99.90
2022-08-07T06:53:49.346Z,99.90
2022-08-07T06:56:03.579Z,99.90
2022-08-07T06:58:41.219Z,99.90
2022-08-07T07:01:33.126Z,99.90
2022-08-07T07:04:32.695Z,99.90
2022-08-07T07:07:10.358Z,99.90
2022-08-07T07:09:48.244Z,99.90
2022-08-07T07:12:30.781Z,99.90
2022-08-07T07:15:08.965Z,99.90
2022-08-07T07:17:52.263Z,99.90
2022-08-07T07:20:26.261Z,99.90
2022-08-07T07:24:08.042Z,99.90
2022-08-07T07:26:35.115Z,99.90
2022-08-07T07:28:48.429Z,99.90
2022-08-07T07:31:39.804Z,99.90
2022-08-07T07:34:16.964Z,99.90
2022-08-07T07:36:53.967Z,99.90
2022-08-07T07:39:25.658Z,99.90
2022-08-07T07:42:13.351Z,99.90
2022-08-07T07:44:49.583Z,99.90
2022-08-07T07:47:22.971Z,99.90
2022-08-07T07:50:34.370Z,99.90
2022-08-07T07:52:46.154Z,99.90
2022-08-07T07:55:17.305Z,99.90
2022-08-07T07:57:52.967Z,99.90
2022-08-07T08:00:29.928Z,99.90
2022-08-07T08:03:09.277Z,99.90
2022-08-07T08:05:53.909Z,99.90
2022-08-07T08:08:35.995Z,99.60
2022-08-07T08:11:16.657Z,98.50
2022-08-07T08:13:57.623Z,98.50
2022-08-07T08:16:32.491Z,97.60
2022-08-07T08:19:17.540Z,97.10
2022-08-07T08:22:16.005Z,96.70
2022-08-07T08:25:24.782Z,97.30
2022-08-07T08:28:01.550Z,95.70
2022-08-07T08:30:34.863Z,95.80
2022-08-07T08:33:15.182Z,94.10
2022-08-07T08:35:52.024Z,94.20
2022-08-07T08:38:29.623Z,93.00
2022-08-07T08:41:09.489Z,92.80
2022-08-07T08:43:56.178Z,92.40
2022-08-07T08:46:40.609Z,91.70
2022-08-07T08:49:33.541Z,91.80
2022-08-07T08:52:19.535Z,91.20
2022-08-07T08:54:57.168Z,90.80
2022-08-07T08:57:36.203Z,91.30
2022-08-07T09:00:08.732Z,91.40
2022-08-07T09:03:01.773Z,91.00
2022-08-07T09:05:42.482Z,90.50
2022-08-07T09:08:39.456Z,90.10
2022-08-07T09:11:24.853Z,90.20
2022-08-07T09:14:20.246Z,90.10
2022-08-07T09:17:03.529Z,89.10
2022-08-07T09:19:53.707Z,88.80
2022-08-07T09:24:34.985Z,89.40
2022-08-07T09:25:44.294Z,87.00
2022-08-07T10:14:40.179Z,81.90
2022-08-07T10:20:31.675Z,80.00
2022-08-07T10:24:06.480Z,79.60
2022-08-07T10:26:45.168Z,80.40
2022-08-07T10:29:45.605Z,80.10
2022-08-07T10:32:53.234Z,81.30
2022-08-07T10:35:55.506Z,80.70
2022-08-07T10:38:48.362Z,80.20
2022-08-07T10:41:46.588Z,77.60
2022-08-07T10:44:38.080Z,78.30
2022-08-07T10:47:26.846Z,77.60
2022-08-07T10:50:19.023Z,77.50
2022-08-07T10:53:21.215Z,77.40
2022-08-07T10:55:54.934Z,77.50
2022-08-07T10:59:02.746Z,76.60
2022-08-07T11:01:51.763Z,75.70
2022-08-07T11:04:57.619Z,76.60
2022-08-07T11:07:58.582Z,74.30
2022-08-07T11:10:37.278Z,76.40
2022-08-07T11:14:41.830Z,76.00
2022-08-07T11:16:30.510Z,74.70
2022-08-07T11:19:15.109Z,72.30
2022-08-07T11:21:58.675Z,74.20
2022-08-07T11:24:38.730Z,75.00
2022-08-07T11:28:01.607Z,76.10
2022-08-07T11:30:19.301Z,72.80
2022-08-07T11:33:08.118Z,74.80
2022-08-07T11:35:59.650Z,74.20
2022-08-07T11:38:38.308Z,74.30
2022-08-07T11:41:22.390Z,74.80
2022-08-07T11:44:18.669Z,73.30
2022-08-07T11:47:00.365Z,73.60
2022-08-07T11:50:18.703Z,77.00
2022-08-07T11:53:05.489Z,74.20
2022-08-07T11:56:25.130Z,73.90
2022-08-07T11:58:50.700Z,74.20
2022-08-07T12:02:00.060Z,74.90
2022-08-07T12:04:44.247Z,75.20
2022-08-07T12:07:27.837Z,75.90
2022-08-07T12:10:18.703Z,75.60
2022-08-07T12:12:54.590Z,76.00
2022-08-07T12:15:46.736Z,75.60
2022-08-07T12:18:29.656Z,76.90
2022-08-07T12:21:16.415Z,76.00
2022-08-07T12:24:36.847Z,77.20
2022-08-07T12:27:16.003Z,75.60
2022-08-07T12:29:52.915Z,76.70
2022-08-07T12:32:30.133Z,76.20
2022-08-07T12:35:19.428Z,76.10
2022-08-07T12:38:11.387Z,76.70
2022-08-07T12:40:47.429Z,77.70
2022-08-07T12:44:05.062Z,76.10
2022-08-07T12:46:41.899Z,77.30
2022-08-07T12:49:39.553Z,76.40
2022-08-07T12:52:18.184Z,75.20
2022-08-07T12:55:03.706Z,75.20
2022-08-07T12:57:59.380Z,74.80
2022-08-07T13:00:41.640Z,76.30
2022-08-07T13:04:02.315Z,75.80
2022-08-07T13:07:01.187Z,75.30
2022-08-07T13:10:20.905Z,76.70
2022-08-07T13:12:56.144Z,78.10
2022-08-07T13:15:38.498Z,78.70
2022-08-07T13:18:26.921Z,76.40
2022-08-07T13:21:07.115Z,76.90
2022-08-07T13:24:00.690Z,78.40
2022-08-07T13:26:41.778Z,78.30
2022-08-07T13:29:17.892Z,79.10
2022-08-07T13:31:57.848Z,78.40
2022-08-07T13:34:38.601Z,79.80
2022-08-07T13:37:20.075Z,79.60
2022-08-07T13:40:36.305Z,80.80
2022-08-07T13:42:59.445Z,78.70
2022-08-07T13:46:12.108Z,78.80
2022-08-07T13:48:34.288Z,79.00
2022-08-07T13:51:26.925Z,79.80
2022-08-07T13:54:00.569Z,80.20
2022-08-07T13:56:35.889Z,80.00
2022-08-07T13:59:15.545Z,79.60
2022-08-07T14:02:05.034Z,82.10
2022-08-07T14:04:49.571Z,79.80
2022-08-07T14:07:23.077Z,80.50
2022-08-07T14:10:01.490Z,80.20
2022-08-07T14:12:54.509Z,81.10
2022-08-07T14:15:31.676Z,81.40
2022-08-07T14:18:23.591Z,80.40
2022-08-07T14:21:08.389Z,82.10
2022-08-07T14:24:00.473Z,81.30
2022-08-07T14:26:38.474Z,81.20
2022-08-07T14:30:09.489Z,80.90
2022-08-07T14:32:03.155Z,81.40
2022-08-07T14:34:33.831Z,81.40
2022-08-07T14:37:05.265Z,81.00
2022-08-07T14:40:17.119Z,81.40
2022-08-07T14:43:55.486Z,81.60
2022-08-07T14:45:46.688Z,83.00
2022-08-07T14:48:21.041Z,83.00
2022-08-07T14:50:53.588Z,82.80
2022-08-07T14:54:03.714Z,82.50
2022-08-07T14:56:28.677Z,82.50
2022-08-07T14:59:04.491Z,81.10
2022-08-07T15:01:51.482Z,81.00
2022-08-07T15:04:25.109Z,82.10
2022-08-07T15:06:54.935Z,82.50
2022-08-07T15:09:59.718Z,82.20
2022-08-07T15:12:25.836Z,86.20
2022-08-07T15:15:07.868Z,84.00
2022-08-07T15:17:54.857Z,83.10
2022-08-07T15:20:33.767Z,85.60
2022-08-07T15:23:16.978Z,85.00
2022-08-07T15:25:55.952Z,86.40
2022-08-07T15:28:34.585Z,88.30
2022-08-07T15:34:02.515Z,88.80
2022-08-07T15:39:25.887Z,89.10
2022-08-07T15:42:43.525Z,88.60
2022-08-07T15:44:53.203Z,87.70
2022-08-07T15:48:01.351Z,88.50
2022-08-07T15:50:37.839Z,88.50
2022-08-07T15:53:11.337Z,89.00
2022-08-07T15:55:53.726Z,88.10
2022-08-07T15:58:41.033Z,88.20
2022-08-07T16:01:20.393Z,89.20
2022-08-07T16:03:54.424Z,89.00
2022-08-07T16:06:33.870Z,89.40
2022-08-07T16:09:07.764Z,89.50
2022-08-07T16:11:58.262Z,89.90
2022-08-07T16:14:48.624Z,89.10
2022-08-07T16:18:00.687Z,89.80
2022-08-07T16:20:43.067Z,89.50
2022-08-07T16:23:54.001Z,88.10
2022-08-07T16:26:35.991Z,88.60
2022-08-07T16:30:06.571Z,88.00
2022-08-07T16:32:06.926Z,87.10
2022-08-07T16:35:00.410Z,85.00
2022-08-07T16:38:04.038Z,85.50
2022-08-07T16:41:09.001Z,85.60
2022-08-07T16:44:40.501Z,85.30
2022-08-07T16:47:41.191Z,85.80
2022-08-07T16:50:35.809Z,85.60
2022-08-07T16:54:01.693Z,86.50
2022-08-07T16:56:37.538Z,86.30
2022-08-07T16:59:17.802Z,86.10
2022-08-07T17:02:03.179Z,86.20
2022-08-07T17:04:57.687Z,86.40
2022-08-07T17:07:55.885Z,86.60
2022-08-07T17:10:32.548Z,87.00
2022-08-07T17:13:41.285Z,87.50
2022-08-07T17:16:20.402Z,87.70
2022-08-07T17:19:01.801Z,88.10
2022-08-07T17:21:51.500Z,87.70
2022-08-07T17:24:28.897Z,87.80
2022-08-07T17:27:08.399Z,87.60
2022-08-07T17:30:19.410Z,88.10
2022-08-07T17:32:57.261Z,88.00
2022-08-07T17:35:55.025Z,88.30
2022-08-07T17:38:35.114Z,88.70
2022-08-07T17:42:02.896Z,88.80
2022-08-07T17:44:09.327Z,88.90
2022-08-07T17:46:52.425Z,89.50
2022-08-07T17:49:24.893Z,89.70
2022-08-07T17:52:00.594Z,90.10
2022-08-07T17:54:54.037Z,89.70
2022-08-07T17:57:56.085Z,89.70
2022-08-07T18:00:32.905Z,90.00
2022-08-07T18:03:18.238Z,90.10
2022-08-07T18:06:03.341Z,90.20
2022-08-07T18:09:01.833Z,90.40
2022-08-07T18:12:08.365Z,90.20
2022-08-07T18:14:37.542Z,90.20
2022-08-07T18:18:46.805Z,90.50
2022-08-07T18:21:07.392Z,90.40
2022-08-07T18:23:21.838Z,90.60
2022-08-07T18:26:02.898Z,90.80
2022-08-07T18:28:58.675Z,90.90
2022-08-07T18:31:51.091Z,91.20
2022-08-07T18:34:37.838Z,91.20
2022-08-07T18:38:56.459Z,91.40
2022-08-07T18:40:42.343Z,91.60
2022-08-07T18:43:37.066Z,91.70
2022-08-07T18:46:24.621Z,91.80
2022-08-07T18:50:29.843Z,91.90
2022-08-07T18:52:33.896Z,92.00
2022-08-07T18:54:55.020Z,92.10
2022-08-07T18:57:38.839Z,92.30
2022-08-07T19:00:34.560Z,92.40
2022-08-07T19:03:12.161Z,92.40
2022-08-07T19:06:04.180Z,92.60
2022-08-07T19:08:46.306Z,92.80
2022-08-07T19:11:35.764Z,93.00
2022-08-07T19:14:16.929Z,93.20
2022-08-07T19:17:06.870Z,93.20
2022-08-07T19:19:53.398Z,93.40
2022-08-07T19:22:30.779Z,93.50
2022-08-07T19:25:05.596Z,93.40
2022-08-07T19:28:57.148Z,93.90
2022-08-07T19:31:04.543Z,93.70
2022-08-07T19:33:35.025Z,93.80
2022-08-07T19:36:08.748Z,94.00
2022-08-07T19:38:52.937Z,94.10
2022-08-07T19:41:44.317Z,94.00
2022-08-07T19:44:22.020Z,94.10
2022-08-07T19:46:57.735Z,94.20
2022-08-07T19:49:57.619Z,94.30
2022-08-07T19:52:22.561Z,94.20
2022-08-07T19:54:56.186Z,94.30
2022-08-07T19:58:01.915Z,94.30
2022-08-07T20:00:28.583Z,94.50
2022-08-07T20:03:02.828Z,94.60
2022-08-07T20:06:00.844Z,94.60
2022-08-07T20:08:28.359Z,94.50
2022-08-07T20:11:03.660Z,94.70
2022-08-07T20:13:43.277Z,94.50
2022-08-07T20:16:32.090Z,94.50
2022-08-07T20:19:10.595Z,94.50
2022-08-07T20:21:42.186Z,94.60
2022-08-07T20:24:21.693Z,94.60
2022-08-07T20:26:54.492Z,94.50
2022-08-07T20:29:49.186Z,94.60
2022-08-07T20:32:22.411Z,94.30
2022-08-07T20:34:57.168Z,94.40
2022-08-07T20:37:37.155Z,94.30
2022-08-07T20:40:32.229Z,94.30
2022-08-07T20:43:09.657Z,94.40
2022-08-07T20:46:26.125Z,94.40
2022-08-07T20:49:02.411Z,94.30
2022-08-07T20:51:35.937Z,94.50
2022-08-07T20:54:15.180Z,94.10
2022-08-07T20:57:02.390Z,94.30
2022-08-07T21:00:06.431Z,94.30
2022-08-07T21:02:54.497Z,94.30
2022-08-07T21:05:51.365Z,94.30
2022-08-07T21:08:20.653Z,94.40
2022-08-07T21:11:10.548Z,94.30
2022-08-07T21:14:20.262Z,94.20
2022-08-07T21:16:56.596Z,94.00
2022-08-07T21:19:32.286Z,94.10
2022-08-07T21:22:19.193Z,94.00
2022-08-07T21:25:04.731Z,94.10
2022-08-07T21:27:53.820Z,94.20
2022-08-07T21:30:30.461Z,94.10
2022-08-07T21:33:12.527Z,94.10
2022-08-07T21:36:05.176Z,94.10
2022-08-07T21:38:49.983Z,94.10
2022-08-07T21:41:37.676Z,94.10
2022-08-07T21:44:14.601Z,94.20
2022-08-07T21:47:02.368Z,94.40
2022-08-07T21:49:40.760Z,94.30
2022-08-07T21:52:40.742Z,94.50
2022-08-07T21:55:19.382Z,94.60
2022-08-07T21:58:07.362Z,94.70
2022-08-07T22:00:39.916Z,94.70
2022-08-07T22:03:18.750Z,94.70
2022-08-07T22:06:30.285Z,94.80
2022-08-07T22:09:07.282Z,95.00
2022-08-07T22:12:05.223Z,95.10
2022-08-07T22:14:36.825Z,95.20
2022-08-07T22:17:06.017Z,95.40
2022-08-07T22:19:41.632Z,95.50
2022-08-07T22:22:29.153Z,95.60
2022-08-07T22:25:08.197Z,95.80
2022-08-07T22:28:06.358Z,95.90
2022-08-07T22:30:40.772Z,96.20
2022-08-07T22:33:15.295Z,96.30
2022-08-07T22:35:49.698Z,96.40
2022-08-07T22:38:31.741Z,96.40
2022-08-07T22:41:07.570Z,96.70
2022-08-07T22:43:43.579Z,96.80
2022-08-07T22:47:04.178Z,97.10
2022-08-07T22:49:54.346Z,97.20
2022-08-07T22:52:54.392Z,97.40
2022-08-07T22:55:43.097Z,97.50
2022-08-07T22:58:48.809Z,97.70
2022-08-07T23:01:49.476Z,97.80
2022-08-07T23:04:56.712Z,97.90
2022-08-07T23:07:42.013Z,98.10
2022-08-07T23:10:36.498Z,98.20
2022-08-07T23:13:21.925Z,98.40
2022-08-07T23:16:46.704Z,98.50
2022-08-07T23:19:48.414Z,98.70
2022-08-07T23:22:30.969Z,98.80
2022-08-07T23:25:17.900Z,98.90
2022-08-07T23:28:22.176Z,99.10
2022-08-07T23:31:06.575Z,99.10
2022-08-07T23:34:34.503Z,99.40
2022-08-07T23:37:19.329Z,99.50
2022-08-07T23:40:01.814Z,99.60
2022-08-07T23:42:55.614Z,99.70
2022-08-07T23:45:50.020Z,99.80
2022-08-07T23:48:34.048Z,99.90
2022-08-07T23:52:56.979Z,99.90
2022-08-07T23:54:05.077Z,99.90
2022-08-07T23:56:53.447Z,99.90
